WMKM

Details ICAO WMKM (MKZ)
Name Malacca
Region Malaysia (Peninsular Malaysia)
Timezone Asia/Kuala_Lumpur (UTC+8.0)
Plans Departing 301
Arriving 406
Stats Elevation 35 ft / 11 m (AMSL)
Location 2.265540° 102.253000°
Runways 1
Magnetic Variation 0.102° E
Sunrise 2024-07-23 23:11:48 UTC / 2024-07-24 07:11:48 Local
Sunset 2024-07-24 11:25:26 UTC / 2024-07-24 19:25:26 Local
Advertisement - Login to hide

Runways

ID Width Length Bearing (true/mag) Surface Threshold Overrun Markings Lighting
03 150 ft / 46 m 7,037 ft / 2,145 m 29.94° / 29.84° ASPHALT 0 ft / 0 m 0 ft / 0 m PREC-APP CENTERLINE EDGE THRESHOLD
21 150 ft / 46 m 7,037 ft / 2,145 m 209.94° / 209.84° ASPHALT 0 ft / 0 m 0 ft / 0 m PREC-APP CENTERLINE EDGE THRESHOLD

Approach Navaids

Runway Type Ident Frequency Range Bearing (true/mag) Slope Elevation
03 GS IKKM 111.70 MHz 10 nm / 19 km 29.95° / 29.85° 3.00° 35 ft / 11 m (AMSL)
03 LOC-ILS IKKM 111.70 MHz 18 nm / 33 km 29.95° / 29.85° - 35 ft / 11 m (AMSL)

Map

Weather


0- 5 10 15 20 25 30 35+ Temperature / °C

Clouds and Precipitation
Forecast for 2024-04-15 18:00 UTC. Updated 3 months ago

Ground ~20,000 ft ~40,000 ft Winds

METAR

WMKM 241500Z VRB02KT 9999 FEW030 28/26 Q1009

TAF

TAF WMKM 241100Z 2412/2512 12006KT 9999 FEW028

Frequencies

Approach 128.80 MHz Malacca Approach
Ground 121.60 MHz Malacca Ground
Tower 118.00 MHz Malacca Tower
Warning: Do not use this data for real-world aviation or navigation. No guarantee of current accuracy is given.